Time;durP1;ratioP1;P1;durP2;ratioP2;P2;SDS_P1;SDS_P2;PMS_P1;PMS_P2;Temp;Humidity;BMP_temperature;BMP_pressure;BME280_temperature;BME280_humidity;BME280_pressure;Samples;Min_cycle;Max_cycle;Signal;HPM_P1;HPM_P2
2022/12/21 00:01:47;;;;;;;62.83;18.67;;;7.60;99.90;;;;;;5092406;28;20063;-79
2022/12/21 00:04:14;;;;;;;70.85;19.63;;;7.60;99.90;;;;;;5092002;28;20044;-79
2022/12/21 00:06:40;;;;;;;70.80;19.27;;;7.60;99.90;;;;;;5075962;28;20089;-79
2022/12/21 00:09:11;;;;;;;78.90;20.33;;;7.60;99.90;;;;;;5091961;28;20044;-79
2022/12/21 00:11:38;;;;;;;86.13;19.88;;;7.60;99.90;;;;;;5109053;28;20098;-79
2022/12/21 00:14:06;;;;;;;85.80;20.88;;;7.50;99.90;;;;;;5077820;28;20040;-79
2022/12/21 00:16:36;;;;;;;92.28;21.35;;;7.50;99.90;;;;;;5095578;28;20542;-79
2022/12/21 00:19:03;;;;;;;87.63;21.42;;;7.50;99.90;;;;;;5095384;28;20189;-79
2022/12/21 00:21:32;;;;;;;83.15;20.23;;;7.50;99.90;;;;;;5093292;28;20044;-79
2022/12/21 00:23:59;;;;;;;79.20;20.15;;;7.50;99.90;;;;;;5096192;28;20258;-79
2022/12/21 00:26:28;;;;;;;75.75;20.15;;;7.40;99.90;;;;;;5075177;28;20040;-79
2022/12/21 00:28:56;;;;;;;78.65;19.17;;;7.40;99.90;;;;;;5108572;28;20040;-79
2022/12/21 00:31:28;;;;;;;75.50;18.75;;;7.40;99.90;;;;;;5107883;28;20086;-79
2022/12/21 00:33:56;;;;;;;71.57;18.25;;;7.40;99.90;;;;;;5098926;28;20047;-79
2022/12/21 00:36:25;;;;;;;89.90;18.42;;;7.30;99.90;;;;;;5127971;28;20040;-79
2022/12/21 00:38:52;;;;;;;84.60;18.80;;;7.30;99.90;;;;;;5100695;28;20040;-79
2022/12/21 00:41:21;;;;;;;81.45;18.38;;;7.30;99.90;;;;;;5108056;28;20055;-79
2022/12/21 00:43:50;;;;;;;93.07;19.67;;;7.30;99.90;;;;;;5106615;28;20044;-79
2022/12/21 00:46:19;;;;;;;90.38;19.90;;;7.30;99.90;;;;;;5094471;28;20063;-79
2022/12/21 00:48:47;;;;;;;114.32;21.45;;;7.30;99.90;;;;;;5109673;28;20036;-79
2022/12/21 00:51:20;;;;;;;110.50;20.77;;;7.30;99.90;;;;;;5095418;28;20028;-79
2022/12/21 00:53:47;;;;;;;112.20;20.25;;;7.20;99.90;;;;;;5111287;28;20048;-79
2022/12/21 00:56:16;;;;;;;118.32;22.08;;;7.20;99.90;;;;;;5128291;28;20186;-79
2022/12/21 00:58:43;;;;;;;157.25;23.00;;;7.20;99.90;;;;;;5097517;28;20044;-79
2022/12/21 01:01:17;;;;;;;129.27;21.35;;;7.20;99.90;;;;;;5074650;28;20047;-79
2022/12/21 01:03:44;;;;;;;124.65;23.25;;;7.20;99.90;;;;;;5091312;28;20040;-79
2022/12/21 01:06:17;;;;;;;169.43;25.08;;;7.20;99.90;;;;;;5091358;28;20037;-79
2022/12/21 01:08:44;;;;;;;199.90;25.92;;;7.10;99.90;;;;;;5103974;28;20093;-79
2022/12/21 01:11:12;;;;;;;196.70;26.30;;;7.10;99.90;;;;;;5108281;28;20028;-79
2022/12/21 01:13:40;;;;;;;275.58;29.10;;;7.00;99.90;;;;;;5074286;28;20568;-79
2022/12/21 01:16:18;;;;;;;165.88;23.67;;;6.90;99.90;;;;;;5081366;28;20087;-79
2022/12/21 01:18:46;;;;;;;292.45;28.10;;;7.00;99.90;;;;;;5102246;28;20475;-79
2022/12/21 01:21:32;;;;;;;233.68;24.20;;;7.00;99.90;;;;;;5083640;28;20071;-79
2022/12/21 01:24:00;;;;;;;180.85;22.08;;;7.00;99.90;;;;;;5090933;28;20048;-79
2022/12/21 01:26:27;;;;;;;250.02;24.60;;;7.00;99.90;;;;;;5090763;28;20044;-79
2022/12/21 01:28:54;;;;;;;315.40;26.88;;;6.90;99.90;;;;;;5091023;28;20040;-79
2022/12/21 01:31:20;;;;;;;306.05;24.02;;;6.80;99.90;;;;;;5077578;28;20488;-79
2022/12/21 01:33:47;;;;;;;438.95;26.90;;;6.80;99.90;;;;;;5079624;28;20097;-79
2022/12/21 01:36:16;;;;;;;319.10;24.75;;;6.80;99.90;;;;;;5074133;28;20132;-79
2022/12/21 01:38:44;;;;;;;246.68;20.95;;;6.80;99.90;;;;;;5090315;28;20109;-79
2022/12/21 01:41:25;;;;;;;277.33;24.00;;;6.70;99.90;;;;;;5073685;28;20094;-79
2022/12/21 01:43:55;;;;;;;286.90;24.45;;;6.70;99.90;;;;;;5090302;28;20105;-79
2022/12/21 01:46:30;;;;;;;272.92;23.05;;;6.80;99.90;;;;;;5090053;28;20132;-79
2022/12/21 01:49:09;;;;;;;204.15;19.17;;;6.80;99.90;;;;;;5106581;28;20048;-78
2022/12/21 01:51:37;;;;;;;281.48;21.27;;;6.70;99.90;;;;;;5110012;28;20381;-79
2022/12/21 01:54:20;;;;;;;249.18;20.25;;;6.80;99.90;;;;;;5110570;28;20039;-79
2022/12/21 01:56:50;;;;;;;283.48;21.67;;;6.80;99.90;;;;;;5107710;28;20077;-79
2022/12/21 01:59:26;;;;;;;244.43;21.58;;;6.80;99.90;;;;;;5107229;28;20040;-79
2022/12/21 02:01:54;;;;;;;318.60;21.77;;;6.80;99.90;;;;;;5090079;28;20037;-79
2022/12/21 02:04:21;;;;;;;271.80;20.80;;;6.70;99.90;;;;;;5077203;28;20032;-78
2022/12/21 02:06:55;;;;;;;99.03;15.82;;;6.70;99.90;;;;;;5076808;28;20044;-79
2022/12/21 02:09:24;;;;;;;155.43;16.65;;;6.70;99.90;;;;;;5127200;28;20081;-79
2022/12/21 02:11:52;;;;;;;172.68;17.00;;;6.70;99.90;;;;;;5093121;28;20404;-79
2022/12/21 02:14:19;;;;;;;172.23;16.88;;;6.70;99.90;;;;;;5089697;28;20032;-79
2022/12/21 02:16:52;;;;;;;135.30;16.35;;;6.70;99.90;;;;;;5089824;28;20102;-79
2022/12/21 02:19:45;;;;;;;345.20;22.17;;;6.70;99.90;;;;;;5090028;28;20075;-79
2022/12/21 02:22:26;;;;;;;313.60;21.65;;;6.70;99.90;;;;;;5109216;28;20455;-79
2022/12/21 02:25:11;;;;;;;357.27;22.02;;;6.60;99.90;;;;;;5096829;28;20519;-78
2022/12/21 02:27:59;;;;;;;261.38;20.35;;;6.60;99.90;;;;;;5089448;28;20040;-79
2022/12/21 02:30:56;;;;;;;327.70;21.35;;;6.60;99.90;;;;;;5089869;28;20036;-78
2022/12/21 02:33:42;;;;;;;294.17;21.08;;;6.60;99.90;;;;;;5105751;28;20045;-78
2022/12/21 02:36:26;;;;;;;164.80;16.45;;;6.60;99.90;;;;;;5123328;28;20119;-79
2022/12/21 02:39:09;;;;;;;250.57;18.83;;;6.60;99.90;;;;;;5123325;28;20097;-79
2022/12/21 02:44:12;;;;;;;273.33;20.85;;;6.60;99.90;;;;;;5114919;28;20036;-79
2022/12/21 02:45:03;;;;;;;239.43;19.15;;;6.60;99.90;;;;;;5114011;28;20040;-79
2022/12/21 02:47:44;;;;;;;296.70;19.77;;;6.60;99.90;;;;;;5104862;28;20513;-79
2022/12/21 02:50:15;;;;;;;127.57;16.52;;;6.50;99.90;;;;;;5089501;28;20488;-78
2022/12/21 02:53:06;;;;;;;336.05;21.70;;;6.60;99.90;;;;;;5112141;28;20513;-79
2022/12/21 02:55:33;;;;;;;234.25;19.15;;;6.50;99.90;;;;;;5101575;28;20044;-79
2022/12/21 02:58:11;;;;;;;273.80;18.98;;;6.50;99.90;;;;;;5089151;28;20044;-78
2022/12/21 03:00:52;;;;;;;182.50;15.35;;;6.50;99.90;;;;;;5089307;28;20127;-79
2022/12/21 03:03:57;;;;;;;199.68;16.15;;;6.50;99.90;;;;;;5090851;28;20044;-79
2022/12/21 03:06:56;;;;;;;198.60;15.43;;;6.50;99.90;;;;;;5101453;28;20468;-79
2022/12/21 03:09:54;;;;;;;177.52;14.68;;;6.50;99.90;;;;;;5103850;28;20087;-79
2022/12/21 03:12:23;;;;;;;300.40;18.63;;;6.40;99.90;;;;;;5109053;28;20036;-78
2022/12/21 03:15:03;;;;;;;188.25;15.82;;;6.40;99.90;;;;;;5109592;28;20135;-79
2022/12/21 03:17:51;;;;;;;94.43;12.93;;;6.50;99.90;;;;;;5108220;28;20036;-78
2022/12/21 03:20:24;;;;;;;156.32;15.10;;;6.50;99.90;;;;;;5109433;28;20557;-78
2022/12/21 03:23:01;;;;;;;125.63;14.15;;;6.50;99.90;;;;;;5108608;28;20032;-78
2022/12/21 03:25:40;;;;;;;269.13;17.67;;;6.50;99.90;;;;;;5093232;28;20075;-79
2022/12/21 03:28:12;;;;;;;98.80;13.98;;;6.50;99.90;;;;;;5104808;28;20119;-79
2022/12/21 03:30:43;;;;;;;159.00;14.82;;;6.50;99.90;;;;;;5130197;28;20032;-78
2022/12/21 03:33:14;;;;;;;81.13;12.45;;;6.50;99.90;;;;;;5122603;28;20039;-79
2022/12/21 03:35:50;;;;;;;149.88;13.68;;;6.50;99.90;;;;;;5124449;28;20039;-80
2022/12/21 03:38:34;;;;;;;156.15;14.68;;;6.50;99.90;;;;;;5148155;28;20474;-78
2022/12/21 03:41:05;;;;;;;102.90;11.85;;;6.40;99.90;;;;;;5120676;28;20036;-78
2022/12/21 03:43:35;;;;;;;179.07;14.05;;;6.40;99.90;;;;;;5098370;28;20500;-78
2022/12/21 03:46:12;;;;;;;150.18;12.75;;;6.50;99.90;;;;;;5092276;28;20052;-78
2022/12/21 03:48:47;;;;;;;229.10;16.55;;;6.40;99.90;;;;;;5108163;28;20044;-78
2022/12/21 03:51:39;;;;;;;108.13;11.93;;;6.40;99.90;;;;;;5112647;28;20036;-78
2022/12/21 03:54:27;;;;;;;147.02;12.73;;;6.40;99.90;;;;;;5112555;28;20040;-78
2022/12/21 03:56:55;;;;;;;105.20;11.45;;;6.40;99.90;;;;;;5129446;28;20044;-78
2022/12/21 03:59:22;;;;;;;219.32;14.75;;;6.40;99.90;;;;;;5096019;28;20031;-78
2022/12/21 04:01:59;;;;;;;256.67;15.63;;;6.40;99.90;;;;;;5095887;28;20119;-79
2022/12/21 04:04:41;;;;;;;232.32;15.48;;;6.40;99.90;;;;;;5112473;28;20032;-79
2022/12/21 04:07:10;;;;;;;234.18;15.70;;;6.40;99.90;;;;;;5112067;28;20096;-78
2022/12/21 04:09:38;;;;;;;213.70;14.63;;;6.40;99.90;;;;;;5124084;28;20044;-78
2022/12/21 04:14:51;;;;;;;154.02;13.73;;;6.40;99.90;;;;;;5080616;28;20048;-79
2022/12/21 04:17:18;;;;;;;174.90;13.52;;;6.40;99.90;;;;;;5078454;28;20039;-78
2022/12/21 04:19:59;;;;;;;123.80;11.57;;;6.30;99.90;;;;;;5112269;28;20047;-78
2022/12/21 04:28:08;;;;;;;258.27;15.95;;;6.30;99.90;;;;;;5128942;28;20043;-79
2022/12/21 04:30:42;;;;;;;;;;;6.30;99.90;;;;;;5097106;28;20089;-79
2022/12/21 04:33:12;;;;;;;123.63;11.52;;;6.30;99.90;;;;;;5112102;28;20011;-78
2022/12/21 04:37:30;;;;;;;159.70;12.13;;;6.30;99.90;;;;;;5111221;28;20040;-79
2022/12/21 04:38:31;;;;;;;81.88;9.82;;;6.30;99.90;;;;;;5115438;28;20089;-79
2022/12/21 04:40:58;;;;;;;120.57;10.40;;;6.30;99.90;;;;;;5111606;28;20040;-79
2022/12/21 04:43:25;;;;;;;119.55;10.65;;;6.30;99.90;;;;;;5091664;28;20094;-79
2022/12/21 04:46:00;;;;;;;98.20;9.70;;;6.30;99.90;;;;;;5091792;28;20044;-79
2022/12/21 04:48:27;;;;;;;128.83;10.67;;;6.30;99.90;;;;;;5091779;28;20531;-79
2022/12/21 04:50:54;;;;;;;155.27;11.90;;;6.30;99.90;;;;;;5098674;28;20399;-80
2022/12/21 04:53:21;;;;;;;184.52;12.00;;;6.20;99.90;;;;;;5095059;28;20028;-78
2022/12/21 04:55:48;;;;;;;207.38;13.93;;;6.20;99.90;;;;;;5095465;28;20036;-78
2022/12/21 04:58:15;;;;;;;186.40;12.13;;;6.20;99.90;;;;;;5117260;28;20041;-78
2022/12/21 05:00:41;;;;;;;181.65;11.25;;;6.20;99.90;;;;;;5074706;28;20127;-79
2022/12/21 05:03:08;;;;;;;161.57;11.98;;;6.20;99.90;;;;;;5078821;28;20044;-79
2022/12/21 05:05:35;;;;;;;156.20;11.23;;;6.20;99.90;;;;;;5083909;28;20035;-78
2022/12/21 05:08:01;;;;;;;180.15;12.88;;;6.20;99.90;;;;;;5074421;28;20033;-79
2022/12/21 05:10:29;;;;;;;173.45;12.10;;;6.20;99.90;;;;;;5091239;28;20530;-78
2022/12/21 05:12:55;;;;;;;91.90;10.07;;;6.20;99.90;;;;;;5075380;28;20033;-78
2022/12/21 05:15:22;;;;;;;137.65;11.10;;;6.20;99.90;;;;;;5090845;28;20046;-79
2022/12/21 05:17:49;;;;;;;81.70;10.10;;;6.20;99.90;;;;;;5091020;28;20048;-78
2022/12/21 05:20:15;;;;;;;219.35;13.50;;;6.20;99.90;;;;;;5090831;28;20094;-79
2022/12/21 05:22:48;;;;;;;137.30;11.48;;;6.10;99.90;;;;;;5090875;28;20040;-79
2022/12/21 05:25:14;;;;;;;117.32;10.50;;;6.10;99.90;;;;;;5074785;28;20497;-78
2022/12/21 05:27:41;;;;;;;128.25;10.70;;;6.20;99.90;;;;;;5090974;28;20055;-79
2022/12/21 05:30:08;;;;;;;169.10;12.63;;;6.20;99.90;;;;;;5090681;28;20036;-79
2022/12/21 05:32:35;;;;;;;119.22;10.43;;;6.20;99.90;;;;;;5074418;28;20120;-79
2022/12/21 05:35:02;;;;;;;121.90;10.18;;;6.20;99.90;;;;;;5073666;28;20204;-79
2022/12/21 05:37:29;;;;;;;242.25;14.45;;;6.20;99.90;;;;;;5107229;28;20131;-78
2022/12/21 05:39:56;;;;;;;149.52;12.02;;;6.20;99.90;;;;;;5107094;28;20131;-78
2022/12/21 05:42:22;;;;;;;233.18;13.23;;;6.20;99.90;;;;;;5073821;28;20048;-79
2022/12/21 05:44:49;;;;;;;72.25;9.93;;;6.10;99.90;;;;;;5090311;28;20403;-78
2022/12/21 05:47:16;;;;;;;115.72;10.23;;;6.20;99.90;;;;;;5072359;28;20057;-78
2022/12/21 05:49:43;;;;;;;57.60;8.73;;;6.20;99.90;;;;;;5090573;28;20041;-78
2022/12/21 05:52:11;;;;;;;119.90;10.38;;;6.20;99.90;;;;;;5093571;28;20051;-79
2022/12/21 05:54:38;;;;;;;133.60;10.77;;;6.20;99.90;;;;;;5093883;28;20077;-78
2022/12/21 05:57:05;;;;;;;89.65;10.23;;;6.20;99.90;;;;;;5077053;28;20124;-80
2022/12/21 05:59:31;;;;;;;132.18;10.65;;;6.20;99.90;;;;;;5093959;28;20044;-78
2022/12/21 06:01:58;;;;;;;193.52;12.90;;;6.20;99.90;;;;;;5107745;28;20035;-78
2022/12/21 06:04:25;;;;;;;161.48;12.32;;;6.20;99.90;;;;;;5079649;28;20119;-78
2022/12/21 06:06:52;;;;;;;116.00;10.93;;;6.20;99.90;;;;;;5099304;28;20036;-78
2022/12/21 06:09:18;;;;;;;93.60;11.27;;;6.20;99.90;;;;;;5073171;28;20093;-78
2022/12/21 06:11:45;;;;;;;136.10;12.50;;;6.20;99.90;;;;;;5073515;28;20036;-79
2022/12/21 06:14:12;;;;;;;361.15;17.48;;;6.20;99.90;;;;;;5073386;28;20090;-79
2022/12/21 06:16:39;;;;;;;102.25;11.65;;;6.10;99.90;;;;;;5089795;28;20098;-78
2022/12/21 06:19:06;;;;;;;136.73;12.73;;;6.20;99.90;;;;;;5057157;28;20072;-78
2022/12/21 06:21:32;;;;;;;85.50;10.55;;;6.20;99.90;;;;;;5093377;28;20040;-79
2022/12/21 06:23:59;;;;;;;205.48;14.63;;;6.10;99.90;;;;;;5076615;28;20040;-79
2022/12/21 06:26:26;;;;;;;57.17;11.60;;;6.10;99.90;;;;;;5093006;28;20044;-78
2022/12/21 06:28:54;;;;;;;169.95;13.63;;;6.10;99.90;;;;;;5076968;28;20036;-79
2022/12/21 06:31:22;;;;;;;184.90;14.10;;;6.10;99.90;;;;;;5120626;28;20032;-79
2022/12/21 06:33:48;;;;;;;68.15;11.43;;;6.10;99.90;;;;;;5131246;28;20040;-78
2022/12/21 06:36:15;;;;;;;190.63;14.30;;;6.10;99.90;;;;;;5113422;28;20080;-79
2022/12/21 06:38:42;;;;;;;153.63;12.77;;;6.10;99.90;;;;;;5129672;28;20116;-79
2022/12/21 06:41:12;;;;;;;105.13;13.13;;;6.10;99.90;;;;;;5130353;28;20035;-78
2022/12/21 06:43:40;;;;;;;171.68;14.50;;;6.10;99.90;;;;;;5100027;28;20047;-78
2022/12/21 06:46:10;;;;;;;218.35;15.60;;;6.10;99.90;;;;;;5089297;28;20040;-79
2022/12/21 06:48:38;;;;;;;129.43;12.90;;;6.10;99.90;;;;;;5089073;28;20055;-79
2022/12/21 06:51:09;;;;;;;375.13;20.58;;;6.10;99.90;;;;;;5072922;28;20039;-79
2022/12/21 06:53:37;;;;;;;254.98;17.80;;;6.10;99.90;;;;;;5089132;28;20040;-78
2022/12/21 06:56:11;;;;;;;206.10;16.52;;;6.20;99.90;;;;;;5089177;28;20595;-79
2022/12/21 06:58:38;;;;;;;262.77;17.80;;;6.10;99.90;;;;;;5088604;28;20041;-79
2022/12/21 07:01:06;;;;;;;228.63;16.98;;;6.10;99.90;;;;;;5111871;28;20038;-78
2022/12/21 07:03:34;;;;;;;89.32;14.20;;;6.20;99.90;;;;;;5093465;28;20039;-78
2022/12/21 07:06:01;;;;;;;224.25;17.40;;;6.20;99.90;;;;;;5089985;28;20132;-78
2022/12/21 07:08:28;;;;;;;229.48;17.73;;;6.20;99.90;;;;;;5098177;28;20036;-79
2022/12/21 07:11:00;;;;;;;219.73;18.58;;;6.20;99.90;;;;;;5095755;28;20037;-78
2022/12/21 07:13:27;;;;;;;139.48;16.58;;;6.20;99.90;;;;;;5085093;28;20036;-78
2022/12/21 07:15:55;;;;;;;204.50;17.25;;;6.20;99.90;;;;;;5090390;28;20390;-79
2022/12/21 07:18:23;;;;;;;203.57;17.55;;;6.20;99.90;;;;;;5089310;28;20488;-79
2022/12/21 07:20:56;;;;;;;179.15;17.63;;;6.20;99.90;;;;;;5104959;28;20075;-79
2022/12/21 07:23:24;;;;;;;276.88;20.33;;;6.20;99.90;;;;;;5094888;28;20143;-79
2022/12/21 07:25:52;;;;;;;231.40;19.77;;;6.20;99.90;;;;;;5069952;28;20500;-79
2022/12/21 07:28:21;;;;;;;269.88;20.65;;;6.20;99.90;;;;;;5107126;28;20032;-78
2022/12/21 07:30:48;;;;;;;137.85;15.05;;;6.30;99.90;;;;;;5109472;28;20119;-78
2022/12/21 07:33:16;;;;;;;256.52;17.95;;;6.30;99.90;;;;;;5113081;28;20067;-78
2022/12/21 07:35:42;;;;;;;301.50;19.73;;;6.30;99.90;;;;;;5120748;28;20046;-79
2022/12/21 07:38:09;;;;;;;198.52;16.58;;;6.30;99.90;;;;;;5102624;28;20035;-79
2022/12/21 07:40:36;;;;;;;236.93;17.75;;;6.20;99.90;;;;;;5082505;28;20048;-79
2022/12/21 07:43:08;;;;;;;188.82;16.65;;;6.30;99.90;;;;;;5114395;28;20170;-78
2022/12/21 07:45:36;;;;;;;222.93;17.90;;;6.30;99.90;;;;;;5088378;28;20037;-79
2022/12/21 07:48:04;;;;;;;225.98;17.67;;;6.30;99.90;;;;;;5065424;28;20059;-79
2022/12/21 07:50:30;;;;;;;279.25;18.35;;;6.40;99.90;;;;;;5091495;28;20583;-79
2022/12/21 07:52:58;;;;;;;259.35;18.92;;;6.40;99.90;;;;;;5061907;28;20048;-79
2022/12/21 07:55:25;;;;;;;207.50;17.88;;;6.40;99.90;;;;;;5058146;28;20044;-79
2022/12/21 07:57:52;;;;;;;176.82;17.77;;;6.40;99.90;;;;;;5108299;28;20037;-79
2022/12/21 08:00:22;;;;;;;293.83;19.23;;;6.40;99.90;;;;;;5110143;28;20078;-78
2022/12/21 08:02:50;;;;;;;166.80;17.00;;;6.40;99.90;;;;;;5095683;28;20031;-78
2022/12/21 08:05:18;;;;;;;152.30;17.23;;;6.40;99.90;;;;;;5084808;28;20125;-78
2022/12/21 08:07:45;;;;;;;155.68;16.60;;;6.40;99.90;;;;;;5090440;28;20033;-78
2022/12/21 08:10:12;;;;;;;106.85;15.32;;;6.50;99.90;;;;;;5115967;28;20089;-81
2022/12/21 08:12:39;;;;;;;268.77;19.40;;;6.50;99.90;;;;;;5094720;28;20476;-81
2022/12/21 08:15:06;;;;;;;159.68;17.52;;;6.50;99.90;;;;;;5108967;28;20044;-81
2022/12/21 08:17:33;;;;;;;135.27;17.20;;;6.50;99.90;;;;;;5108771;28;20127;-81
2022/12/21 08:20:00;;;;;;;172.55;19.23;;;6.50;99.90;;;;;;5112339;28;20097;-82
2022/12/21 08:22:27;;;;;;;129.25;17.10;;;6.50;99.90;;;;;;5087275;28;20041;-82
2022/12/21 08:24:54;;;;;;;108.68;16.20;;;6.50;99.90;;;;;;5092131;28;20123;-82
2022/12/21 08:27:20;;;;;;;121.22;18.10;;;6.50;99.90;;;;;;5059231;28;20086;-82
2022/12/21 08:29:47;;;;;;;163.77;18.73;;;6.60;99.90;;;;;;5092078;28;20480;-82
2022/12/21 08:32:14;;;;;;;66.93;12.80;;;6.50;99.90;;;;;;5095697;28;20066;-82
2022/12/21 08:34:41;;;;;;;84.75;14.27;;;6.50;99.90;;;;;;5078875;28;20403;-82
2022/12/21 08:37:08;;;;;;;67.50;12.45;;;6.50;99.90;;;;;;5075386;28;20040;-82
2022/12/21 08:39:35;;;;;;;65.78;13.70;;;6.50;99.90;;;;;;5108619;28;20515;-82
2022/12/21 08:42:03;;;;;;;74.93;13.13;;;6.60;99.90;;;;;;5091980;28;20047;-82
2022/12/21 08:44:30;;;;;;;59.22;13.38;;;6.60;99.90;;;;;;5108787;28;20037;-82
2022/12/21 08:46:57;;;;;;;73.22;12.50;;;6.20;99.90;;;;;;5091957;28;20075;-82
2022/12/21 08:49:24;;;;;;;72.80;13.75;;;6.60;99.90;;;;;;5092359;28;20044;-82
2022/12/21 08:51:50;;;;;;;62.90;14.35;;;6.90;99.90;;;;;;5093509;28;20123;-82
2022/12/21 08:54:17;;;;;;;64.35;14.23;;;6.60;99.90;;;;;;5078257;28;20079;-82
2022/12/21 08:56:44;;;;;;;83.13;13.70;;;6.60;99.90;;;;;;5078753;28;20051;-82
2022/12/21 08:59:11;;;;;;;71.53;14.65;;;6.60;99.90;;;;;;5078706;28;20036;-82
2022/12/21 09:01:37;;;;;;;74.00;15.13;;;6.60;99.90;;;;;;5095070;28;20036;-82
2022/12/21 09:04:04;;;;;;;54.05;12.35;;;6.60;99.90;;;;;;5078430;28;20127;-82
2022/12/21 09:06:31;;;;;;;75.40;12.90;;;6.70;99.90;;;;;;5070734;28;20032;-82
2022/12/21 09:08:58;;;;;;;64.30;13.05;;;6.60;99.90;;;;;;5094831;28;20131;-82
2022/12/21 09:11:27;;;;;;;62.45;14.35;;;6.60;99.90;;;;;;5078164;28;20452;-82
2022/12/21 09:13:53;;;;;;;75.88;15.07;;;6.70;99.90;;;;;;5094933;28;20438;-82
2022/12/21 09:16:24;;;;;;;67.40;12.38;;;6.80;99.90;;;;;;5094695;28;20038;-81
2022/12/21 09:18:51;;;;;;;70.22;12.43;;;6.70;99.90;;;;;;5111596;28;20036;-82
2022/12/21 09:21:20;;;;;;;59.25;11.65;;;6.70;99.90;;;;;;5111468;28;20123;-82
2022/12/21 09:23:48;;;;;;;46.97;11.35;;;6.70;99.90;;;;;;5111370;28;20032;-82
2022/12/21 09:26:15;;;;;;;67.88;12.07;;;6.70;99.90;;;;;;5093639;28;20040;-82
2022/12/21 09:28:42;;;;;;;50.00;11.13;;;6.70;99.90;;;;;;5088188;28;20043;-82
2022/12/21 09:31:14;;;;;;;61.80;11.13;;;6.70;99.90;;;;;;5091139;28;20488;-82
2022/12/21 09:33:41;;;;;;;46.17;10.52;;;6.70;99.90;;;;;;5107820;28;20037;-82
2022/12/21 09:36:09;;;;;;;56.47;10.60;;;6.80;99.90;;;;;;5090974;28;20134;-82
2022/12/21 09:38:36;;;;;;;49.97;10.77;;;6.70;99.90;;;;;;5094656;28;20058;-82
2022/12/21 09:41:06;;;;;;;63.40;11.55;;;6.70;99.90;;;;;;5111022;28;20043;-82
2022/12/21 09:44:13;;;;;;;42.70;11.80;;;6.80;99.90;;;;;;5102836;28;20079;-81
2022/12/21 09:46:42;;;;;;;;;;;6.80;99.90;;;;;;5063017;28;20079;-82
2022/12/21 09:49:21;;;;;;;48.25;12.35;;;6.80;99.90;;;;;;5109989;28;20004;-82
2022/12/21 09:51:57;;;;;;;46.80;11.38;;;6.80;99.90;;;;;;5090757;28;20454;-82
2022/12/21 09:54:43;;;;;;;48.33;11.57;;;6.80;99.90;;;;;;5103758;28;20174;-82
2022/12/21 09:57:13;;;;;;;51.05;11.85;;;6.90;99.90;;;;;;5100020;28;20072;-82
2022/12/21 09:59:40;;;;;;;64.50;12.27;;;6.90;99.90;;;;;;5093802;28;20065;-82
2022/12/21 10:02:35;;;;;;;51.40;12.68;;;6.90;99.90;;;;;;5090844;28;20539;-82
2022/12/21 10:05:14;;;;;;;65.90;12.93;;;7.00;99.90;;;;;;5110169;28;20089;-82
2022/12/21 10:08:09;;;;;;;47.53;11.80;;;7.00;99.90;;;;;;5110121;28;20048;-82
2022/12/21 10:10:46;;;;;;;45.97;10.85;;;7.10;99.90;;;;;;5105283;28;20119;-82
2022/12/21 10:13:54;;;;;;;46.95;11.75;;;7.10;99.90;;;;;;5107772;28;20043;-82
2022/12/21 10:16:45;;;;;;;53.58;13.05;;;7.10;99.90;;;;;;5074143;28;20040;-82
2022/12/21 10:19:24;;;;;;;44.00;12.27;;;7.10;99.90;;;;;;5090097;28;20032;-82
2022/12/21 10:22:05;;;;;;;49.30;13.27;;;7.10;99.90;;;;;;5105006;28;20036;-82
2022/12/21 10:24:55;;;;;;;47.00;12.38;;;7.10;99.90;;;;;;5110411;28;20043;-82
2022/12/21 10:27:30;;;;;;;52.33;13.38;;;7.10;99.90;;;;;;5110420;28;20090;-81
2022/12/21 10:29:58;;;;;;;52.95;13.70;;;7.10;99.90;;;;;;5108421;28;20044;-82
2022/12/21 10:32:29;;;;;;;50.75;12.98;;;7.10;99.90;;;;;;5089364;28;20079;-82
2022/12/21 10:35:00;;;;;;;50.00;13.25;;;7.10;99.90;;;;;;5099473;28;20068;-82
2022/12/21 10:37:27;;;;;;;53.45;14.07;;;7.20;99.90;;;;;;5109816;28;20424;-82
2022/12/21 10:39:56;;;;;;;49.95;14.20;;;7.20;99.90;;;;;;5089576;28;20036;-82
2022/12/21 10:42:35;;;;;;;43.05;13.55;;;7.20;99.90;;;;;;5089484;28;20099;-82
2022/12/21 10:45:03;;;;;;;41.72;13.63;;;7.30;99.90;;;;;;5106058;28;20401;-82
2022/12/21 10:47:30;;;;;;;47.35;15.02;;;7.30;99.90;;;;;;5089614;28;20620;-82
2022/12/21 10:50:15;;;;;;;43.60;13.60;;;7.30;99.90;;;;;;5072527;28;20124;-82
2022/12/21 10:52:48;;;;;;;56.88;16.17;;;7.30;99.90;;;;;;5089420;28;20048;-82
2022/12/21 10:55:34;;;;;;;46.35;16.15;;;7.40;99.90;;;;;;5106231;28;20037;-82
2022/12/21 10:58:01;;;;;;;62.65;15.75;;;7.40;99.90;;;;;;5106355;28;20389;-82
2022/12/21 11:00:33;;;;;;;45.08;14.90;;;7.40;99.90;;;;;;5096460;28;20069;-82
2022/12/21 11:03:03;;;;;;;45.80;15.23;;;7.40;99.90;;;;;;5100786;28;20047;-82
2022/12/21 11:05:41;;;;;;;51.10;15.13;;;7.40;99.90;;;;;;5096524;28;20040;-82
2022/12/21 11:08:30;;;;;;;55.80;16.70;;;7.40;99.90;;;;;;5108248;28;20036;-82
2022/12/21 11:11:00;;;;;;;49.50;13.65;;;7.40;99.90;;;;;;5089266;28;20074;-82
2022/12/21 11:13:32;;;;;;;43.03;12.85;;;7.40;99.90;;;;;;5098676;28;20048;-82
2022/12/21 11:16:10;;;;;;;43.88;14.18;;;7.40;99.90;;;;;;5080182;28;20101;-82
2022/12/21 11:18:46;;;;;;;42.60;14.00;;;7.40;99.90;;;;;;5098521;28;20437;-82
2022/12/21 11:21:22;;;;;;;43.55;14.15;;;7.40;99.90;;;;;;5109257;28;20044;-81
2022/12/21 11:24:19;;;;;;;38.88;13.80;;;7.40;99.90;;;;;;5126365;28;20102;-82
2022/12/21 11:26:50;;;;;;;42.83;14.05;;;7.40;99.90;;;;;;5098644;28;20047;-82
2022/12/21 11:29:27;;;;;;;41.72;13.13;;;7.40;99.90;;;;;;5109582;28;20039;-82
2022/12/21 11:32:01;;;;;;;41.60;12.43;;;7.30;99.90;;;;;;5109426;28;20119;-82
2022/12/21 11:34:43;;;;;;;38.63;12.57;;;7.30;99.90;;;;;;5109270;28;20515;-82
2022/12/21 11:37:44;;;;;;;38.00;12.25;;;7.20;99.90;;;;;;5109066;28;20044;-82
2022/12/21 11:40:10;;;;;;;38.85;12.23;;;7.20;99.90;;;;;;5108663;28;20113;-82
2022/12/21 11:42:59;;;;;;;36.97;12.63;;;7.20;99.90;;;;;;5116861;28;20039;-82
2022/12/21 11:45:43;;;;;;;30.45;11.15;;;7.20;99.90;;;;;;5123770;28;20092;-82
2022/12/21 11:48:18;;;;;;;33.17;11.65;;;7.20;99.90;;;;;;5133057;28;20048;-82
2022/12/21 11:51:17;;;;;;;37.40;11.38;;;7.20;99.90;;;;;;5131454;28;20537;-82
2022/12/21 11:54:13;;;;;;;33.03;11.32;;;7.20;99.90;;;;;;5112901;28;20491;-82
2022/12/21 11:56:46;;;;;;;27.43;10.50;;;7.20;99.90;;;;;;5080100;28;20130;-82
2022/12/21 11:59:50;;;;;;;31.20;11.13;;;7.10;99.90;;;;;;5108068;28;20036;-82
2022/12/21 12:02:35;;;;;;;31.50;11.13;;;7.20;99.90;;;;;;5096403;28;20553;-82
2022/12/21 12:05:29;;;;;;;35.57;11.33;;;7.20;99.90;;;;;;5109535;28;20067;-82
2022/12/21 12:08:25;;;;;;;38.30;11.38;;;7.20;99.90;;;;;;5119397;28;20481;-82
2022/12/21 12:11:11;;;;;;;33.30;10.75;;;7.20;99.90;;;;;;5086095;28;20044;-82
2022/12/21 12:13:40;;;;;;;35.17;11.35;;;7.20;99.90;;;;;;5092294;28;20435;-82
2022/12/21 12:16:33;;;;;;;27.30;9.50;;;7.20;99.90;;;;;;5092308;28;20102;-82
2022/12/21 12:19:34;;;;;;;39.05;13.15;;;7.30;99.90;;;;;;5105960;28;20040;-81
2022/12/21 12:22:15;;;;;;;39.15;12.38;;;7.30;99.90;;;;;;5126290;28;20043;-82
2022/12/21 12:25:22;;;;;;;40.45;13.95;;;7.30;99.90;;;;;;5118541;28;20866;-81
2022/12/21 12:28:06;;;;;;;;;;;7.30;99.90;;;;;;5015905;28;20541;-81
2022/12/21 12:31:10;;;;;;;36.53;12.85;;;7.30;99.90;;;;;;5060331;28;19966;-82
2022/12/21 12:34:02;;;;;;;41.88;12.75;;;7.30;99.90;;;;;;5132457;28;20050;-82
2022/12/21 12:36:52;;;;;;;39.45;13.95;;;7.30;99.90;;;;;;5131959;28;20035;-81
2022/12/21 12:39:57;;;;;;;48.63;14.32;;;7.30;99.90;;;;;;5120166;28;20492;-80
2022/12/21 12:42:51;;;;;;;48.45;13.23;;;7.30;99.90;;;;;;5073452;28;20040;-82
2022/12/21 12:45:23;;;;;;;42.70;13.95;;;7.40;99.90;;;;;;5128064;28;20043;-82
2022/12/21 12:48:06;;;;;;;35.40;12.57;;;7.40;99.90;;;;;;5111729;28;20060;-82
2022/12/21 12:50:53;;;;;;;44.30;13.52;;;7.40;99.90;;;;;;5111817;28;20044;-82
2022/12/21 12:53:36;;;;;;;46.13;14.15;;;7.40;99.90;;;;;;5113987;28;20043;-81
2022/12/21 12:56:55;;;;;;;48.92;13.88;;;7.40;99.90;;;;;;5118687;28;20522;-81
2022/12/21 12:59:43;;;;;;;45.13;13.82;;;7.40;99.90;;;;;;5111432;28;20047;-81
2022/12/21 13:02:37;;;;;;;40.22;13.43;;;7.40;99.90;;;;;;5147706;28;20039;-81
2022/12/21 13:05:15;;;;;;;41.10;13.75;;;7.40;99.90;;;;;;5113050;28;20051;-81
2022/12/21 13:07:51;;;;;;;33.97;10.63;;;7.40;99.90;;;;;;5114217;28;20120;-82
2022/12/21 13:10:55;;;;;;;37.83;11.18;;;7.40;99.90;;;;;;5119069;28;20488;-81
2022/12/21 13:14:07;;;;;;;35.47;11.25;;;7.40;99.90;;;;;;5115558;28;20051;-80
2022/12/21 13:16:45;;;;;;;45.95;12.60;;;7.40;99.90;;;;;;5090025;28;20409;-80